createdAt,value
2022-11-09T17:59:05.109Z,72.02
2022-11-09T18:01:50.063Z,67.33
2022-11-09T18:04:37.095Z,66.22
2022-11-09T18:07:22.577Z,65.34
2022-11-09T18:10:08.134Z,64.57
2022-11-09T18:12:53.226Z,64.35
2022-11-09T18:15:39.591Z,63.70
2022-11-09T18:18:25.280Z,63.25
2022-11-09T18:21:19.049Z,62.89
2022-11-09T18:24:04.379Z,61.90
2022-11-09T18:26:49.394Z,61.84
2022-11-09T18:29:34.765Z,61.38
2022-11-09T18:32:19.989Z,61.27
2022-11-09T18:35:05.945Z,61.02
2022-11-09T18:37:51.284Z,61.47
2022-11-09T18:40:36.495Z,61.51
2022-11-09T18:43:22.022Z,61.05
2022-11-09T18:46:10.332Z,60.72
2022-11-09T18:48:55.509Z,59.73
2022-11-09T18:51:40.888Z,60.08
2022-11-09T18:54:26.351Z,59.59
2022-11-09T18:57:14.749Z,60.06
2022-11-09T19:00:04.150Z,60.58
2022-11-09T19:02:49.680Z,60.12
2022-11-09T19:05:39.284Z,60.05
2022-11-09T19:08:42.961Z,60.33
2022-11-09T19:11:30.037Z,60.57
2022-11-09T19:14:15.160Z,61.25
2022-11-09T19:17:00.521Z,61.46
2022-11-09T19:19:45.963Z,61.57
2022-11-09T19:22:31.496Z,62.04
2022-11-09T19:25:16.569Z,62.60
2022-11-09T19:28:02.018Z,62.20
2022-11-09T19:30:47.388Z,61.83
2022-11-09T19:33:32.648Z,61.38
2022-11-09T19:36:34.593Z,61.89
2022-11-09T19:39:20.135Z,61.95
2022-11-09T19:42:06.227Z,62.45
2022-11-09T19:44:56.191Z,62.96
2022-11-09T19:47:41.851Z,63.20
2022-11-09T19:50:27.163Z,62.74
2022-11-09T19:53:12.548Z,62.95
2022-11-09T19:56:04.279Z,63.17
2022-11-09T19:58:55.448Z,63.48
2022-11-09T20:01:41.076Z,63.70
2022-11-09T20:04:26.518Z,64.21
2022-11-09T20:07:11.956Z,65.93
2022-11-09T20:09:57.289Z,64.56
2022-11-09T20:12:52.102Z,64.74
2022-11-09T20:15:37.139Z,65.57
2022-11-09T20:18:23.782Z,64.59
2022-11-09T20:21:08.992Z,64.14
2022-11-09T20:23:54.835Z,64.35
2022-11-09T20:26:40.745Z,64.26
2022-11-09T20:29:26.071Z,64.68
2022-11-09T20:32:12.476Z,64.03
2022-11-09T20:34:57.897Z,64.27
2022-11-09T20:37:42.960Z,64.84
2022-11-09T20:40:28.496Z,64.42
2022-11-09T20:43:13.806Z,65.65
2022-11-09T20:46:08.136Z,64.77
2022-11-09T20:48:55.172Z,65.16
2022-11-09T20:51:41.327Z,64.74
2022-11-09T20:54:26.228Z,64.43
2022-11-09T20:57:11.860Z,64.57
2022-11-09T20:59:57.032Z,65.03
2022-11-09T21:02:43.079Z,65.33
2022-11-09T21:05:28.389Z,65.37
2022-11-09T21:08:13.512Z,65.44
2022-11-09T21:11:03.927Z,65.06
2022-11-09T21:13:53.578Z,65.31
2022-11-09T21:16:40.079Z,66.10
2022-11-09T21:19:25.115Z,65.95
2022-11-09T21:22:11.370Z,65.71
2022-11-09T21:25:15.322Z,66.11
2022-11-09T21:28:19.517Z,65.46
2022-11-09T21:31:05.001Z,65.93
2022-11-09T21:33:52.864Z,66.53
2022-11-09T21:36:38.328Z,67.11
2022-11-09T21:39:23.461Z,66.33
2022-11-09T21:42:11.817Z,66.23
2022-11-09T21:44:57.012Z,66.53
2022-11-09T21:47:42.508Z,66.80
2022-11-09T21:50:27.657Z,65.90
2022-11-09T21:53:13.181Z,67.17
2022-11-09T21:56:01.441Z,66.41
2022-11-09T21:58:47.801Z,68.55
2022-11-09T22:01:32.704Z,66.91
2022-11-09T22:04:17.985Z,66.14
2022-11-09T22:07:03.356Z,65.93
2022-11-09T22:10:09.571Z,66.26
2022-11-09T22:13:14.331Z,67.06
2022-11-09T22:16:09.692Z,66.62
2022-11-09T22:19:13.830Z,68.06
2022-11-09T22:21:59.058Z,66.54
2022-11-09T22:24:44.593Z,67.01
2022-11-09T22:27:32.036Z,65.99
2022-11-09T22:30:17.220Z,66.16
2022-11-09T22:33:02.472Z,67.00
2022-11-09T22:35:58.232Z,67.18
2022-11-09T22:38:44.405Z,66.15
2022-11-09T22:41:29.272Z,66.30
2022-11-09T22:44:15.089Z,65.70
2022-11-09T22:47:00.024Z,67.54
2022-11-09T22:49:45.177Z,67.20
2022-11-09T22:52:30.596Z,66.28
2022-11-09T22:55:16.043Z,68.01
2022-11-09T22:58:01.391Z,67.92
2022-11-09T23:00:46.562Z,67.18
2022-11-09T23:03:32.009Z,66.38
2022-11-09T23:06:19.833Z,66.18
2022-11-09T23:09:05.045Z,65.93
2022-11-09T23:11:50.512Z,66.37
2022-11-09T23:14:54.320Z,65.67
2022-11-09T23:17:58.148Z,66.12
2022-11-09T23:20:43.893Z,65.92
2022-11-09T23:23:28.895Z,66.14
2022-11-09T23:26:14.227Z,66.17
2022-11-09T23:29:00.039Z,66.40
2022-11-09T23:31:45.026Z,66.43
2022-11-09T23:34:30.321Z,67.33
2022-11-09T23:37:15.566Z,67.33
2022-11-09T23:40:00.843Z,66.98
2022-11-09T23:42:46.114Z,66.53
2022-11-09T23:45:33.871Z,66.72
2022-11-09T23:48:19.880Z,66.22
2022-11-09T23:51:06.062Z,66.28
2022-11-09T23:53:51.063Z,65.84
2022-11-09T23:56:36.241Z,65.85
2022-11-09T23:59:22.888Z,65.65
